Amston, Connecticut
Current Conditions -  °F | °C
As of 12:52 AM on Thursday 18 Dec 2014 (Local Time) from KIJD Reporting Station
Overcast Overcast  
Wind Chill: 34°   Ceiling: 6500
Heat Index: 39°   Visibility: 10mi
Dew Point: 29°   Wind: 7mph
Humidity: 67%   Direction: 270°W
Pressure: 29.78"   Gusts: NA
Location:  41.63°N, 72.34°W
Report Text: KIJD 180552Z AUTO 27006KT 10SM OVC065 04/M02 A2978 RMK AO2 SLP085 T00391017 10078 20033 58010
Loading
Personal Weather Stations






























Interactive Weather Map New forecast layout! Learn more

10-Day Weather Forecast

Advertisements
Track Severe Weather on mobile